Time;durP1;ratioP1;P1;durP2;ratioP2;P2;SDS_P1;SDS_P2;PMS_P1;PMS_P2;Temp;Humidity;BMP_temperature;BMP_pressure;BME280_temperature;BME280_humidity;BME280_pressure;Samples;Min_cycle;Max_cycle;Signal;HPM_P1;HPM_P2
2021/12/08 00:02:11;;;;;;;1.50;1.40;;;;;;;-1.69;72.93;92805.13;4953279;28;20110;-84
2021/12/08 00:04:37;;;;;;;1.88;1.77;;;;;;;-1.63;72.41;92824.97;4960291;28;20043;-84
2021/12/08 00:07:04;;;;;;;2.08;1.92;;;;;;;-1.72;72.74;92822.09;4953565;28;20041;-85
2021/12/08 00:09:48;;;;;;;1.55;1.45;;;;;;;-1.61;72.92;92843.75;4922799;28;20042;-85
2021/12/08 00:15:00;;;;;;;1.83;1.73;;;;;;;-3.07;73.31;92610.81;4951774;28;20032;-84
2021/12/08 00:17:26;;;;;;;2.55;2.35;;;;;;;-1.68;71.77;92819.75;4958313;28;20042;-84
2021/12/08 00:19:52;;;;;;;3.15;2.03;;;;;;;-1.46;71.93;92854.91;4961535;28;20073;-84
2021/12/08 00:22:18;;;;;;;3.58;1.98;;;;;;;-1.63;71.39;92838.00;4943545;28;20169;-84
2021/12/08 00:24:44;;;;;;;2.70;1.77;;;;;;;-2.15;71.56;92747.84;4945365;28;20036;-84
2021/12/08 00:27:10;;;;;;;1.80;1.70;;;;;;;-1.62;71.65;92823.91;4960672;28;20034;-84
2021/12/08 00:29:37;;;;;;;1.58;1.48;;;;;;;-1.60;71.30;92850.50;4951486;28;20030;-84
2021/12/08 00:32:03;;;;;;;2.22;2.05;;;;;;;-2.67;71.98;92692.56;4955482;28;20074;-84
2021/12/08 00:34:30;;;;;;;1.63;1.52;;;;;;;-1.86;72.40;92806.19;4956935;28;20054;-84
2021/12/08 00:36:57;;;;;;;1.63;1.52;;;;;;;-2.51;71.81;92718.38;4952533;28;20089;-84
2021/12/08 00:39:23;;;;;;;1.52;1.42;;;;;;;-2.72;71.16;92686.31;4958770;28;20122;-84
2021/12/08 00:41:49;;;;;;;2.03;1.50;;;;;;;-2.85;71.07;92666.00;4949825;28;20563;-84
2021/12/08 00:44:15;;;;;;;1.83;1.73;;;;;;;-2.29;70.99;92754.59;4959720;28;20111;-84
2021/12/08 00:46:40;;;;;;;2.10;1.90;;;;;;;-1.57;71.10;92868.25;4954836;28;20149;-85
2021/12/08 00:49:07;;;;;;;2.22;1.70;;;;;;;-3.13;71.14;92643.09;4957893;28;20046;-83
2021/12/08 00:51:33;;;;;;;1.95;1.75;;;;;;;-2.30;71.61;92786.88;4954961;28;20042;-85
2021/12/08 00:53:59;;;;;;;2.33;1.80;;;;;;;-1.67;72.66;92878.66;4954611;28;20026;-84
2021/12/08 00:56:25;;;;;;;1.98;1.58;;;;;;;-1.73;71.77;92871.88;4959306;28;20064;-83
2021/12/08 00:58:50;;;;;;;2.45;1.88;;;;;;;-2.01;72.04;92827.03;4958072;28;20495;-84
2021/12/08 01:01:17;;;;;;;3.72;2.10;;;;;;;-1.63;71.99;92869.28;4940775;28;20092;-84
2021/12/08 01:03:45;;;;;;;2.15;2.00;;;;;;;-1.61;71.27;92872.41;4937111;28;20050;-84
2021/12/08 01:06:10;;;;;;;2.25;2.15;;;;;;;-1.77;71.86;92886.47;4934747;28;20538;-84
2021/12/08 01:08:36;;;;;;;2.25;2.15;;;;;;;-2.03;73.46;92860.38;4955646;28;20022;-84
2021/12/08 01:11:07;;;;;;;2.45;2.15;;;;;;;-2.09;73.12;92861.41;4941232;28;20113;-84
2021/12/08 01:13:32;;;;;;;4.00;2.53;;;;;;;-1.87;72.73;92885.44;4956322;28;20047;-85
2021/12/08 01:15:58;;;;;;;4.07;2.15;;;;;;;-1.68;72.78;92882.31;4939069;28;20599;-84
2021/12/08 01:18:25;;;;;;;2.65;2.45;;;;;;;-1.86;72.04;92857.53;4958415;28;20121;-84
2021/12/08 01:20:56;;;;;;;2.28;2.10;;;;;;;-1.75;72.26;92874.72;4960034;28;20058;-84
2021/12/08 01:23:22;;;;;;;2.53;2.22;;;;;;;-1.94;72.26;92822.34;4957804;28;20030;-84
2021/12/08 01:25:48;;;;;;;3.40;2.42;;;;;;;-1.99;71.61;92804.09;4956541;28;20113;-85
2021/12/08 01:28:16;;;;;;;4.05;2.45;;;;;;;-2.24;71.04;92744.16;4939085;28;20043;-85
2021/12/08 01:30:42;;;;;;;2.80;2.00;;;;;;;-2.24;71.37;92785.06;4959755;28;20046;-85
2021/12/08 01:33:07;;;;;;;3.65;2.53;;;;;;;-3.13;72.38;92658.69;4943051;28;20027;-84
2021/12/08 01:35:33;;;;;;;4.10;2.78;;;;;;;-1.78;72.04;92866.66;4960888;28;20093;-84
2021/12/08 01:37:58;;;;;;;3.67;2.75;;;;;;;-1.88;72.15;92854.41;4946729;28;20189;-84
2021/12/08 01:40:23;;;;;;;3.40;2.22;;;;;;;-1.52;71.45;92878.69;4953774;28;20070;-84
2021/12/08 01:42:53;;;;;;;2.38;2.17;;;;;;;-2.02;71.44;92817.66;4959857;28;20036;-84
2021/12/08 01:48:09;;;;;;;2.65;2.10;;;;;;;-1.86;70.51;92818.44;4959975;28;20096;-85
2021/12/08 01:50:37;;;;;;;2.83;2.15;;;;;;;-1.57;70.10;92863.81;4949939;28;20445;-84
2021/12/08 01:53:04;;;;;;;2.00;1.85;;;;;;;-1.85;70.41;92836.41;4943812;28;20074;-84
2021/12/08 01:55:30;;;;;;;2.33;2.13;;;;;;;-1.77;70.91;92857.81;4962192;28;20037;-84
2021/12/08 01:57:56;;;;;;;4.07;3.65;;;;;;;-2.84;71.85;92698.81;4958875;28;20863;-84
2021/12/08 02:00:41;;;;;;;2.88;2.40;;;;;;;-1.54;70.93;92893.78;4944473;28;20109;-84
2021/12/08 02:03:07;;;;;;;;;;;;;;;-1.65;71.40;92907.84;4942070;28;20052;-84
2021/12/08 02:05:33;;;;;;;2.92;2.72;;;;;;;-1.71;71.14;92888.84;4958702;28;20026;-84
2021/12/08 02:07:59;;;;;;;2.42;2.25;;;;;;;-1.79;71.58;92884.13;4959151;28;20066;-84
2021/12/08 02:10:24;;;;;;;3.65;2.53;;;;;;;-1.57;71.43;92905.53;4960015;28;20042;-84
2021/12/08 02:12:50;;;;;;;2.92;2.50;;;;;;;-1.85;71.77;92852.06;4958536;28;20429;-84
2021/12/08 02:15:18;;;;;;;3.40;2.67;;;;;;;-1.65;71.50;92866.91;4944317;28;20670;-84
2021/12/08 02:17:46;;;;;;;3.33;3.00;;;;;;;-1.48;71.16;92900.56;4959115;28;20034;-85
2021/12/08 02:20:13;;;;;;;3.67;3.08;;;;;;;-1.64;71.22;92846.84;4946589;28;20038;-83
2021/12/08 02:22:42;;;;;;;3.63;3.03;;;;;;;-2.19;70.76;92778.03;4954951;28;20164;-84
2021/12/08 02:25:10;;;;;;;3.45;2.80;;;;;;;-1.50;70.11;92853.09;4961076;28;20042;-84
2021/12/08 02:27:36;;;;;;;3.55;2.80;;;;;;;-1.53;69.97;92851.03;4956900;28;20381;-84
2021/12/08 02:30:18;;;;;;;2.45;2.28;;;;;;;-1.48;69.77;92861.47;4959954;28;20031;-85
2021/12/08 02:49:13;;;;;;;5.57;3.17;;;;;;;-1.25;70.07;92897.44;4957143;28;20085;-85
2021/12/08 02:51:40;;;;;;;4.15;3.60;;;;;;;-1.04;70.14;92940.75;4946350;28;20586;-85
2021/12/08 02:54:06;;;;;;;4.53;3.85;;;;;;;-1.00;69.92;92933.94;4959840;28;20102;-84
2021/12/08 02:56:32;;;;;;;4.68;3.38;;;;;;;-1.18;70.13;92913.63;4954261;28;20090;-84
2021/12/08 02:58:59;;;;;;;4.47;3.47;;;;;;;-1.23;70.11;92905.78;4959543;28;20562;-84
2021/12/08 03:01:25;;;;;;;8.15;4.53;;;;;;;-1.18;71.03;92928.50;4959722;28;20136;-84
2021/12/08 03:03:54;;;;;;;5.45;3.95;;;;;;;-1.48;71.27;92879.72;4938609;28;20081;-84
2021/12/08 03:06:20;;;;;;;5.10;4.28;;;;;;;-1.42;71.81;92915.19;4956836;28;20033;-84
2021/12/08 03:08:51;;;;;;;7.43;4.70;;;;;;;-2.01;71.84;92832.25;4961814;28;20105;-84
2021/12/08 03:11:17;;;;;;;16.27;8.27;;;;;;;-2.60;72.11;92745.16;4944585;28;20066;-84
2021/12/08 03:13:59;;;;;;;7.32;5.18;;;;;;;-1.33;72.52;92936.31;4935576;28;20436;-84
2021/12/08 03:16:25;;;;;;;7.65;4.60;;;;;;;-1.65;72.22;92858.31;4941831;28;20035;-84
2021/12/08 03:18:50;;;;;;;10.80;6.55;;;;;;;-0.99;71.96;92935.53;4959125;28;20115;-84
2021/12/08 03:21:16;;;;;;;7.60;5.00;;;;;;;-0.98;70.52;92939.69;4962206;28;20027;-84
2021/12/08 03:23:53;;;;;;;10.88;5.72;;;;;;;-1.14;71.29;92922.47;4941486;28;20510;-84
2021/12/08 03:26:26;;;;;;;5.68;4.38;;;;;;;-1.00;70.71;92935.78;4959130;28;20042;-85
2021/12/08 03:28:59;;;;;;;9.07;4.45;;;;;;;-2.36;70.75;92756.66;4959274;28;20034;-84
2021/12/08 03:31:31;;;;;;;8.60;5.13;;;;;;;-2.55;71.29;92766.00;4945071;28;20031;-84
2021/12/08 03:33:56;;;;;;;8.85;5.15;;;;;;;-2.51;72.26;92765.22;4958090;28;20546;-84
2021/12/08 03:36:22;;;;;;;6.63;5.07;;;;;;;-1.83;71.94;92855.19;4957378;28;20029;-84
2021/12/08 03:38:47;;;;;;;6.60;4.93;;;;;;;-1.45;71.56;92923.50;4962921;28;20030;-84
2021/12/08 03:41:13;;;;;;;11.85;6.15;;;;;;;-1.58;72.09;92892.75;4957127;28;20046;-84
2021/12/08 03:43:38;;;;;;;9.00;5.20;;;;;;;-1.92;72.20;92835.91;4936553;28;20479;-84
2021/12/08 03:46:05;;;;;;;8.60;4.75;;;;;;;-2.13;71.82;92808.25;4951431;28;20126;-84
2021/12/08 03:48:46;;;;;;;8.35;5.28;;;;;;;-1.20;71.89;92941.00;4944736;28;20535;-85
2021/12/08 03:51:13;;;;;;;7.93;4.97;;;;;;;-1.20;71.88;92944.38;4963552;28;20023;-84
2021/12/08 03:53:38;;;;;;;6.13;4.50;;;;;;;-2.11;72.05;92808.78;4936473;28;20030;-85
2021/12/08 03:56:04;;;;;;;7.47;5.05;;;;;;;-0.92;71.98;92978.84;4934368;28;20101;-85
2021/12/08 03:58:30;;;;;;;6.65;4.63;;;;;;;-2.11;71.42;92781.94;4956620;28;20381;-84
2021/12/08 04:00:57;;;;;;;8.63;5.55;;;;;;;-1.03;71.23;92947.53;4954280;28;20135;-84
2021/12/08 04:03:32;;;;;;;12.63;6.40;;;;;;;-0.87;70.53;92944.91;4952418;28;20022;-84
2021/12/08 04:06:01;;;;;;;11.73;5.38;;;;;;;-0.57;70.44;92981.41;4954829;28;20121;-84
2021/12/08 04:08:39;;;;;;;10.40;5.43;;;;;;;-0.76;69.72;92954.28;4947773;28;20039;-85
2021/12/08 04:11:06;;;;;;;11.75;5.53;;;;;;;-0.70;69.19;92946.19;4962262;28;20051;-85
2021/12/08 04:13:47;;;;;;;9.65;6.05;;;;;;;-1.01;69.17;92895.84;4943505;28;20054;-85
2021/12/08 04:16:15;;;;;;;13.50;7.35;;;;;;;-0.39;68.85;92986.09;4959357;28;20030;-84
2021/12/08 04:18:41;;;;;;;10.68;6.40;;;;;;;-0.50;68.91;92976.69;4965023;28;20401;-85
2021/12/08 04:21:08;;;;;;;7.97;5.65;;;;;;;-1.27;68.70;92873.44;4958209;28;20030;-85
2021/12/08 04:23:36;;;;;;;8.00;5.38;;;;;;;-0.76;68.92;92959.50;4955083;28;20070;-85
2021/12/08 04:26:17;;;;;;;11.35;5.57;;;;;;;-0.63;69.46;92974.63;4936093;28;20038;-85
2021/12/08 04:28:43;;;;;;;8.05;5.05;;;;;;;-0.42;68.41;92967.53;4956102;28;20055;-85
2021/12/08 04:31:18;;;;;;;9.45;5.60;;;;;;;-1.44;67.96;92831.97;4960122;28;20039;-85
2021/12/08 04:33:54;;;;;;;9.10;5.50;;;;;;;-0.43;67.30;92965.97;4959467;28;20502;-85
2021/12/08 04:36:22;;;;;;;10.25;5.50;;;;;;;-0.69;67.81;92944.34;4957600;28;20046;-84
2021/12/08 04:38:52;;;;;;;12.57;6.63;;;;;;;-0.46;67.59;92962.06;4961077;28;20050;-85
2021/12/08 04:41:28;;;;;;;6.90;5.75;;;;;;;-0.32;67.37;93004.06;4957804;28;20190;-85
2021/12/08 04:44:06;;;;;;;10.93;5.75;;;;;;;-0.62;67.79;92984.00;4933808;28;20042;-85
2021/12/08 05:08:41;;;;;;;10.23;5.70;;;;;;;-1.12;71.13;93052.69;4964387;28;20042;-86
2021/12/08 05:11:29;;;;;;;10.68;6.15;;;;;;;-1.36;71.50;93015.09;4955311;28;20030;-85
2021/12/08 05:14:05;;;;;;;11.63;5.78;;;;;;;-2.59;71.56;92820.41;4937150;28;20081;-84
2021/12/08 05:16:33;;;;;;;9.65;6.20;;;;;;;-2.35;71.53;92867.59;4943845;28;20434;-85
2021/12/08 05:19:03;;;;;;;9.23;6.63;;;;;;;-0.83;71.73;93081.69;4959658;28;20048;-85
2021/12/08 05:21:44;;;;;;;10.23;7.03;;;;;;;-1.03;71.08;93041.47;4948876;28;20131;-86
2021/12/08 05:24:10;;;;;;;13.38;6.50;;;;;;;-0.78;71.10;93081.69;4942440;28;20622;-85
2021/12/08 05:26:44;;;;;;;10.00;5.90;;;;;;;-1.01;71.09;93036.78;4965782;28;20026;-85
2021/12/08 05:29:33;;;;;;;11.85;7.43;;;;;;;-0.70;70.72;93079.34;4946158;28;20400;-86
2021/12/08 05:32:01;;;;;;;13.95;6.63;;;;;;;-0.62;70.11;93084.03;4964184;28;20037;-85
2021/12/08 05:34:27;;;;;;;12.15;6.90;;;;;;;-0.76;70.22;93054.28;4945860;28;20058;-85
2021/12/08 05:36:53;;;;;;;8.60;5.97;;;;;;;-0.68;70.49;93085.06;4963180;28;20039;-85
2021/12/08 05:39:23;;;;;;;15.70;8.18;;;;;;;-0.81;70.58;93061.31;4961257;28;20117;-86
2021/12/08 05:41:56;;;;;;;10.20;6.63;;;;;;;-0.96;70.18;93049.03;4954191;28;20498;-85
2021/12/08 05:44:21;;;;;;;9.75;5.40;;;;;;;-1.05;70.13;93043.56;4942948;28;20451;-85
2021/12/08 05:46:49;;;;;;;10.70;6.80;;;;;;;-1.24;70.54;93024.22;4957733;28;20039;-86
2021/12/08 05:49:17;;;;;;;9.10;5.65;;;;;;;-1.97;70.92;92921.88;4961682;28;20043;-86
2021/12/08 05:51:44;;;;;;;11.88;6.38;;;;;;;-0.67;70.28;93093.69;4943799;28;20039;-85
2021/12/08 05:54:16;;;;;;;12.77;7.03;;;;;;;-0.79;70.24;93095.78;4949405;28;20508;-85
2021/12/08 05:56:43;;;;;;;12.13;6.68;;;;;;;-1.79;70.43;92949.28;4957329;28;20106;-85
2021/12/08 05:59:11;;;;;;;11.57;6.75;;;;;;;-0.97;70.50;93094.44;4940641;28;20050;-85
2021/12/08 06:01:42;;;;;;;13.13;5.60;;;;;;;-1.02;70.76;93103.06;4957337;28;20042;-85
2021/12/08 06:04:11;;;;;;;8.13;6.22;;;;;;;-2.14;71.78;92973.41;4965420;28;20381;-84
2021/12/08 06:06:38;;;;;;;13.43;7.95;;;;;;;-1.40;72.18;93106.09;4965553;28;20047;-84
2021/12/08 06:09:08;;;;;;;10.48;6.13;;;;;;;-2.94;72.50;92893.13;4966043;28;20070;-86
2021/12/08 06:11:34;;;;;;;9.65;5.50;;;;;;;-2.23;72.89;92984.56;4956783;28;20035;-85
2021/12/08 06:14:00;;;;;;;12.55;7.63;;;;;;;-3.77;72.71;92762.88;4956256;28;20658;-85
2021/12/08 06:16:28;;;;;;;7.88;5.78;;;;;;;-2.67;72.80;92952.84;4958675;28;20054;-85
2021/12/08 06:18:54;;;;;;;12.80;6.80;;;;;;;-1.44;73.10;93144.16;4949564;28;20590;-85
2021/12/08 06:21:23;;;;;;;12.05;6.90;;;;;;;-1.42;73.19;93131.66;4933826;28;20035;-85
2021/12/08 06:23:49;;;;;;;10.90;5.53;;;;;;;-1.31;73.25;93143.69;4962395;28;20034;-85
2021/12/08 06:26:18;;;;;;;11.20;6.75;;;;;;;-3.08;72.95;92861.56;4937818;28;20045;-85
2021/12/08 06:28:44;;;;;;;16.05;8.13;;;;;;;-1.64;72.12;93081.50;4965354;28;20073;-85
2021/12/08 06:31:11;;;;;;;12.80;6.43;;;;;;;-1.33;72.64;93109.25;4941920;28;20047;-85
2021/12/08 06:33:38;;;;;;;10.15;5.88;;;;;;;-0.95;71.15;93153.19;4966010;28;20066;-85
2021/12/08 06:36:11;;;;;;;10.05;6.13;;;;;;;-1.21;71.30;93107.19;4961221;28;20069;-86
2021/12/08 06:38:37;;;;;;;14.13;6.10;;;;;;;-1.44;71.49;93077.13;4962168;28;20051;-85
2021/12/08 06:41:17;;;;;;;10.52;6.15;;;;;;;-0.88;71.13;93126.84;4942831;28;20111;-85
2021/12/08 06:43:48;;;;;;;9.75;5.75;;;;;;;-1.92;70.42;92960.97;4940537;28;20043;-85
2021/12/08 06:46:14;;;;;;;14.20;7.35;;;;;;;-0.61;70.32;93147.50;4942593;28;20038;-86
2021/12/08 06:48:44;;;;;;;10.00;6.40;;;;;;;-0.97;69.94;93066.53;4953354;28;20606;-85
2021/12/08 06:51:27;;;;;;;11.90;6.55;;;;;;;-0.96;70.00;93080.34;4955883;28;20118;-85
2021/12/08 06:53:58;;;;;;;8.73;6.32;;;;;;;-0.46;69.96;93144.13;4950837;28;20023;-86
2021/12/08 06:56:29;;;;;;;11.93;6.57;;;;;;;-0.71;69.45;93069.16;4940363;28;20072;-85
2021/12/08 06:58:58;;;;;;;11.00;6.03;;;;;;;-1.28;68.48;92984.06;4936318;28;20137;-86
2021/12/08 07:01:44;;;;;;;13.13;6.35;;;;;;;-0.73;68.70;93068.66;4951171;28;20156;-84
2021/12/08 07:06:59;;;;;;;7.65;5.32;;;;;;;-0.51;67.72;93121.41;4961741;28;20049;-85
2021/12/08 07:09:37;;;;;;;8.40;5.50;;;;;;;-0.48;67.84;93144.38;4959716;28;20796;-86
2021/12/08 07:12:21;;;;;;;10.88;4.88;;;;;;;-0.71;67.82;93157.94;4944022;28;20022;-85
2021/12/08 07:14:56;;;;;;;7.78;5.28;;;;;;;-1.46;69.16;93074.00;4949019;28;20054;-85
2021/12/08 07:17:23;;;;;;;;;;;;;;;-1.08;69.67;93158.91;4936502;28;20459;-85
2021/12/08 07:20:03;;;;;;;9.05;5.40;;;;;;;-1.37;70.16;93134.28;4955516;28;19922;-84
2021/12/08 07:22:32;;;;;;;8.85;5.75;;;;;;;-2.31;71.05;93027.50;4952298;28;20451;-85
2021/12/08 07:25:00;;;;;;;7.13;5.15;;;;;;;-1.52;71.46;93168.13;4960118;28;20042;-85
2021/12/08 07:27:30;;;;;;;10.15;5.88;;;;;;;-1.55;71.52;93166.00;4962101;28;20077;-85
2021/12/08 07:30:01;;;;;;;7.28;4.85;;;;;;;-2.00;71.91;93083.97;4960404;28;20053;-85
2021/12/08 07:32:33;;;;;;;9.50;6.45;;;;;;;-1.56;71.88;93151.44;4942630;28;20213;-85
2021/12/08 07:35:06;;;;;;;14.07;7.90;;;;;;;-2.49;71.19;93012.31;4960361;28;20046;-85
2021/12/08 07:37:34;;;;;;;9.63;6.22;;;;;;;-1.35;71.72;93184.38;4953467;28;20541;-86
2021/12/08 07:40:17;;;;;;;8.85;5.68;;;;;;;-2.90;71.11;92954.00;4941002;28;20058;-85
2021/12/08 07:42:59;;;;;;;8.52;5.78;;;;;;;-1.36;71.24;93167.13;4957834;28;20039;-85
2021/12/08 07:45:33;;;;;;;9.07;6.63;;;;;;;-2.16;71.14;93032.81;4943726;28;20145;-85
2021/12/08 07:48:01;;;;;;;8.85;5.82;;;;;;;-2.55;70.39;92963.84;4955696;28;20056;-85
2021/12/08 07:51:00;;;;;;;9.23;5.82;;;;;;;-1.19;70.55;93157.31;4957374;28;20129;-84
2021/12/08 07:53:28;;;;;;;13.40;7.15;;;;;;;-1.67;69.55;93074.19;4919121;28;20042;-86
2021/12/08 07:56:00;;;;;;;9.10;6.38;;;;;;;-2.21;70.06;92993.72;4942192;28;20034;-85
2021/12/08 07:58:26;;;;;;;9.27;5.35;;;;;;;-1.68;69.14;93056.97;4980821;28;20042;-85
2021/12/08 08:01:00;;;;;;;8.40;5.72;;;;;;;-1.58;68.02;93064.84;4979064;28;20051;-84
2021/12/08 08:03:28;;;;;;;10.45;6.18;;;;;;;-3.02;68.16;92873.53;4949938;28;20031;-85
2021/12/08 08:05:55;;;;;;;13.00;7.10;;;;;;;-1.73;68.71;93046.53;4949756;28;20025;-85
2021/12/08 08:08:25;;;;;;;7.70;5.13;;;;;;;-0.96;68.43;93162.06;4958738;28;20066;-86
2021/12/08 08:10:55;;;;;;;10.05;6.05;;;;;;;-1.12;68.53;93173.47;4958121;28;20849;-86
2021/12/08 08:13:23;;;;;;;8.68;5.25;;;;;;;-1.86;68.86;93059.00;4939847;28;20042;-85
2021/12/08 08:15:57;;;;;;;11.35;7.75;;;;;;;-1.13;68.78;93160.72;4957466;28;20031;-85
2021/12/08 08:18:26;;;;;;;9.02;6.80;;;;;;;-0.90;68.82;93201.22;4939856;28;20154;-86
2021/12/08 08:20:59;;;;;;;7.78;5.28;;;;;;;-1.10;68.38;93187.06;4946534;28;20113;-86
2021/12/08 08:23:27;;;;;;;8.40;5.72;;;;;;;-2.09;69.08;93069.03;4952605;28;20090;-85
2021/12/08 08:25:54;;;;;;;14.32;7.05;;;;;;;-2.05;69.59;93060.47;4953978;28;20784;-85
2021/12/08 08:28:21;;;;;;;11.77;6.60;;;;;;;-1.36;69.20;93174.19;4938626;28;20440;-85
2021/12/08 08:30:52;;;;;;;11.32;6.35;;;;;;;-3.22;68.94;92884.63;4958437;28;20092;-84
2021/12/08 08:33:20;;;;;;;13.15;6.53;;;;;;;-1.23;69.87;93203.22;4954564;28;20026;-85
2021/12/08 08:35:52;;;;;;;8.82;5.63;;;;;;;-2.02;69.85;93048.75;4937681;28;20035;-85
2021/12/08 08:38:28;;;;;;;10.50;6.78;;;;;;;-1.86;69.61;93090.28;4955381;28;20043;-86
2021/12/08 08:40:59;;;;;;;13.57;6.93;;;;;;;-0.84;69.75;93223.72;4937381;28;20042;-86
2021/12/08 08:43:25;;;;;;;9.00;6.03;;;;;;;-0.81;69.73;93231.81;4950605;28;20046;-84
2021/12/08 08:45:55;;;;;;;17.80;8.70;;;;;;;-1.13;69.12;93156.28;4959519;28;20034;-86
2021/12/08 08:48:29;;;;;;;11.80;8.13;;;;;;;-0.87;68.70;93201.50;4941355;28;20575;-85
2021/12/08 08:51:00;;;;;;;12.15;6.05;;;;;;;-0.91;68.11;93210.09;4959044;28;20041;-85
2021/12/08 08:53:28;;;;;;;9.60;5.90;;;;;;;-2.46;67.83;92981.34;4935421;28;20588;-86
2021/12/08 08:56:07;;;;;;;8.23;5.85;;;;;;;-0.77;68.33;93216.41;4947540;28;20081;-85
2021/12/08 08:58:37;;;;;;;9.38;5.97;;;;;;;-1.99;68.43;93019.56;4945714;28;20034;-85
2021/12/08 09:01:14;;;;;;;11.82;5.65;;;;;;;-0.65;68.95;93216.97;4962022;28;20034;-85
2021/12/08 09:03:44;;;;;;;9.88;5.95;;;;;;;-1.90;68.55;93026.66;4964545;28;20037;-85
2021/12/08 09:06:14;;;;;;;15.57;7.25;;;;;;;-2.25;68.50;92961.41;4954297;28;20519;-85
2021/12/08 09:08:41;;;;;;;11.07;6.10;;;;;;;-1.33;67.79;93085.78;4950812;28;20029;-85
2021/12/08 09:11:15;;;;;;;10.25;5.63;;;;;;;-1.87;67.73;92979.25;4954196;28;20043;-86
2021/12/08 09:13:50;;;;;;;9.45;6.95;;;;;;;-0.39;68.67;93196.91;4958753;28;20034;-84
2021/12/08 09:16:21;;;;;;;12.93;8.18;;;;;;;-1.79;68.27;92927.63;4941321;28;20043;-84
2021/12/08 09:19:01;;;;;;;15.35;8.85;;;;;;;-0.33;67.83;93128.69;4958863;28;20074;-86
2021/12/08 09:22:11;;;;;;;13.00;7.53;;;;;;;-0.95;67.07;93014.84;4961262;28;20069;-84
2021/12/08 09:24:46;;;;;;;12.40;7.53;;;;;;;-0.31;66.23;93124.00;4915436;28;20039;-84
2021/12/08 09:27:17;;;;;;;11.80;6.15;;;;;;;-0.04;65.59;93167.38;4940808;28;20104;-84
2021/12/08 09:29:48;;;;;;;7.47;5.78;;;;;;;-0.12;65.20;93164.25;4952461;28;20835;-85
2021/12/08 09:32:38;;;;;;;9.32;6.20;;;;;;;-0.98;65.56;93018.00;4957764;28;20077;-84
2021/12/08 09:35:19;;;;;;;10.63;5.45;;;;;;;0.04;65.88;93153.78;4944345;28;20047;-87
2021/12/08 09:37:54;;;;;;;11.93;6.53;;;;;;;0.28;65.84;93154.78;4960606;28;20043;-84
2021/12/08 09:40:36;;;;;;;6.47;4.73;;;;;;;-0.04;65.13;93083.75;4942231;28;20037;-85
2021/12/08 09:43:10;;;;;;;8.15;4.57;;;;;;;0.42;63.80;93150.56;4959284;28;22026;-86
2021/12/08 09:45:43;;;;;;;6.97;5.25;;;;;;;0.50;63.76;93155.22;4943135;28;20456;-86
2021/12/08 09:48:11;;;;;;;13.52;7.78;;;;;;;-0.04;64.40;93050.50;4941558;28;20474;-85
2021/12/08 09:50:39;;;;;;;8.00;5.63;;;;;;;0.39;63.42;93127.56;4945623;28;20084;-83
2021/12/08 09:53:06;;;;;;;8.82;4.65;;;;;;;0.43;63.07;93141.66;4962266;28;20038;-86
2021/12/08 09:55:32;;;;;;;14.30;6.63;;;;;;;-0.64;61.92;92970.47;4962082;28;20062;-86
2021/12/08 09:57:58;;;;;;;8.10;5.68;;;;;;;0.52;63.58;93149.75;4959785;28;20044;-87
2021/12/08 10:00:30;;;;;;;10.35;6.07;;;;;;;0.26;64.05;93094.09;4959873;28;20022;-85
2021/12/08 10:03:00;;;;;;;12.27;6.85;;;;;;;-0.08;63.39;93005.84;4940994;28;20733;-87
2021/12/08 10:05:29;;;;;;;10.18;5.47;;;;;;;0.82;62.24;93143.63;4944856;28;20031;-88
2021/12/08 10:07:57;;;;;;;10.93;6.65;;;;;;;-0.56;62.94;92952.41;4960021;28;20039;-88
2021/12/08 10:10:23;;;;;;;11.48;6.78;;;;;;;0.39;62.69;93083.09;4961208;28;20054;-86
2021/12/08 10:12:49;;;;;;;10.98;6.88;;;;;;;0.27;62.81;93031.06;4959438;28;20050;-85
2021/12/08 10:15:18;;;;;;;10.57;6.70;;;;;;;0.82;61.87;93143.63;4953649;28;20522;-86
2021/12/08 10:17:44;;;;;;;15.30;7.45;;;;;;;0.44;62.10;93097.97;4959751;28;20491;-88
2021/12/08 10:20:31;;;;;;;11.98;6.68;;;;;;;0.14;62.50;93015.19;4959523;28;20105;-86
2021/12/08 10:23:18;;;;;;;11.48;7.10;;;;;;;1.11;61.88;93144.53;4940444;28;20465;-87
2021/12/08 10:25:51;;;;;;;13.88;7.68;;;;;;;1.07;62.22;93143.50;4940627;28;20046;-87
2021/12/08 10:28:21;;;;;;;10.65;6.93;;;;;;;0.67;63.30;93095.53;4957550;28;20034;-87
2021/12/08 10:30:54;;;;;;;12.98;7.65;;;;;;;1.12;62.40;93138.25;4959748;28;20099;-87
2021/12/08 10:33:50;;;;;;;10.18;5.68;;;;;;;0.82;61.70;93099.13;4952601;28;20274;-84
2021/12/08 10:36:35;;;;;;;11.35;5.95;;;;;;;-0.27;61.49;92934.31;4957025;28;20042;-84
2021/12/08 10:39:10;;;;;;;17.48;8.15;;;;;;;-1.50;61.61;92777.47;4935579;28;20065;-87
2021/12/08 10:41:57;;;;;;;13.90;7.55;;;;;;;0.49;61.65;93066.56;4946376;28;20053;-85
2021/12/08 10:44:46;;;;;;;12.65;6.60;;;;;;;1.16;62.25;93139.25;4945138;28;20128;-87
2021/12/08 10:47:16;;;;;;;14.48;7.30;;;;;;;0.99;61.60;93102.16;4958858;28;20042;-85
2021/12/08 10:55:00;;;;;;;12.32;6.88;;;;;;;1.18;62.33;93090.03;4960892;28;20093;-86
2021/12/08 10:57:37;;;;;;;13.80;6.93;;;;;;;1.63;60.42;93131.59;4959836;28;20101;-86
2021/12/08 11:00:12;;;;;;;12.13;6.13;;;;;;;1.13;60.34;93095.28;4955370;28;20102;-86
2021/12/08 11:02:42;;;;;;;12.40;8.02;;;;;;;0.11;60.79;92940.66;4942464;28;20050;-86
2021/12/08 11:05:25;;;;;;;27.33;13.15;;;;;;;0.73;63.00;93112.78;4960535;28;20038;-84
2021/12/08 11:08:20;;;;;;;16.33;8.73;;;;;;;0.27;63.77;93009.38;4945728;28;20595;-86
2021/12/08 11:10:51;;;;;;;15.15;10.45;;;;;;;0.98;64.26;93126.78;4957302;28;20323;-86
2021/12/08 11:13:22;;;;;;;16.10;8.65;;;;;;;-0.02;64.13;92956.16;4952383;28;20074;-86
2021/12/08 11:15:56;;;;;;;23.83;11.52;;;;;;;0.92;65.08;93135.72;4956085;28;20502;-87
2021/12/08 11:18:22;;;;;;;16.38;9.65;;;;;;;1.04;64.35;93141.41;4955142;28;20336;-86
2021/12/08 11:20:59;;;;;;;16.50;9.45;;;;;;;1.25;63.83;93121.91;4957381;28;21018;-87
2021/12/08 11:23:40;;;;;;;20.30;9.88;;;;;;;0.26;63.91;92989.50;4955970;28;20518;-87
2021/12/08 11:26:19;;;;;;;17.83;10.35;;;;;;;1.06;64.04;93097.41;4936703;28;20043;-85
2021/12/08 11:29:02;;;;;;;15.80;9.15;;;;;;;1.27;63.17;93109.34;4952364;28;20035;-87
2021/12/08 11:31:38;;;;;;;14.85;9.32;;;;;;;0.93;64.42;93132.06;4957369;28;20039;-87
2021/12/08 11:34:10;;;;;;;19.38;9.98;;;;;;;1.26;64.33;93138.41;4948275;28;20800;-89
2021/12/08 11:36:38;;;;;;;21.00;10.85;;;;;;;-0.50;63.23;92846.09;4957995;28;20615;-88
2021/12/08 11:39:19;;;;;;;21.58;11.02;;;;;;;-0.33;63.17;92924.13;4939813;28;20034;-88
2021/12/08 11:42:06;;;;;;;17.45;9.05;;;;;;;1.35;62.99;93153.28;4935890;28;20050;-87
2021/12/08 11:44:36;;;;;;;17.00;8.98;;;;;;;-0.55;61.83;92802.50;4941846;28;20039;-87
2021/12/08 11:47:08;;;;;;;18.55;9.50;;;;;;;0.34;61.22;92934.81;4958778;28;20124;-87
2021/12/08 11:49:41;;;;;;;15.13;8.98;;;;;;;1.46;61.06;93159.25;4946071;28;20778;-86
2021/12/08 11:52:13;;;;;;;14.23;8.25;;;;;;;1.71;60.55;93147.81;4935693;28;20034;-87
2021/12/08 11:55:02;;;;;;;21.20;10.25;;;;;;;1.85;60.76;93164.47;4937720;28;20036;-87
2021/12/08 11:57:37;;;;;;;16.00;8.07;;;;;;;0.60;60.36;92982.50;4956542;28;20041;-86
2021/12/08 12:00:14;;;;;;;;;;;;;;;1.82;60.15;93168.41;4960036;28;20836;-86
2021/12/08 12:02:53;;;;;;;17.60;8.77;;;;;;;1.34;60.38;93166.66;4940543;28;20313;-87
2021/12/08 12:05:24;;;;;;;12.43;7.55;;;;;;;0.01;60.98;92958.25;4943328;28;20039;-87
2021/12/08 12:07:50;;;;;;;16.38;8.63;;;;;;;-0.58;60.74;92857.09;4955328;28;20046;-86
2021/12/08 12:10:19;;;;;;;14.13;8.68;;;;;;;0.96;61.69;93144.59;4936406;28;20066;-86
2021/12/08 12:12:45;;;;;;;18.25;10.02;;;;;;;1.08;62.16;93173.88;4927667;28;20471;-87
2021/12/08 12:15:13;;;;;;;20.38;11.00;;;;;;;0.48;62.82;93131.19;4957115;28;20415;-86
2021/12/08 12:17:41;;;;;;;18.67;8.77;;;;;;;-0.47;63.96;93007.50;4951686;28;20480;-86
2021/12/08 12:20:36;;;;;;;14.43;7.88;;;;;;;0.52;64.37;93176.69;4956036;28;20504;-86
2021/12/08 12:23:44;;;;;;;17.92;10.32;;;;;;;0.51;64.09;93179.56;4929629;28;20039;-87
2021/12/08 12:26:31;;;;;;;17.67;8.77;;;;;;;0.82;63.08;93180.25;4952311;28;20035;-90
2021/12/08 12:29:36;;;;;;;33.10;13.57;;;;;;;0.54;63.46;93187.69;4937058;28;20972;-86
2021/12/08 12:32:10;;;;;;;18.23;9.60;;;;;;;0.73;63.40;93177.44;4947210;28;20034;-86
2021/12/08 12:34:38;;;;;;;15.13;7.93;;;;;;;0.62;63.11;93181.91;4938813;28;20051;-86
2021/12/08 12:37:06;;;;;;;16.73;9.95;;;;;;;-0.42;65.22;93036.22;4955225;28;20065;-87
2021/12/08 12:39:33;;;;;;;16.70;8.93;;;;;;;-1.48;64.82;92851.03;4955281;28;20158;-87
2021/12/08 12:42:05;;;;;;;19.15;10.80;;;;;;;-0.10;64.76;93065.44;4957245;28;20049;-85
2021/12/08 12:44:32;;;;;;;14.75;9.05;;;;;;;-0.09;63.87;93035.63;4939293;28;20524;-87